KCKV/CKV METAR and TAF weather

Enter ICAO airport designator
Station Type Date Time Source
KCKV METAR 2018/10/21 03:52 UTC NOAA

KCKV 210352Z AUTO 36011KT 10SM CLR 07/M06 A3029 RMK AO2 PK WND 01028/0320 SLP257 T00721056


Station Type Date Time Source
KCKV Decoded METAR 2018/10/21 03:52 UTC NOAA

CLARKSVILLE OUTLAW FIELD, TN, United States (KCKV) 36-37N 87-25W 165M
Oct 20, 2018 - 11:52 PM EDT / 2018.10.21 0352 UTC
Wind: from the N (360 degrees) at 13 MPH (11 KT):0
Visibility: 10 mile(s):0
Sky conditions: clear
Temperature: 45.0 F (7.2 C)
Dew Point: 21.9 F (-5.6 C)
Relative Humidity: 39%
Pressure (altimeter): 30.29 in. Hg (1025 hPa)
ob: KCKV 210352Z AUTO 36011KT 10SM CLR 07/M06 A3029 RMK AO2 PK WND 01028/0320 SLP257 T00721056
cycle: 4

Station Type Date Time Source
KCKV TAF 2018/10/21 02:03 UTC NOAA

TAF
AMD KCKV 210201Z 2102/2124 34014G26KT P6SM SKC
FM210900 36007KT P6SM SKC
FM211400 04006KT P6SM SKC


Example: see airport list